createdAt,value
2022-11-03T00:00:27.316Z,23.00
2022-11-03T00:03:00.851Z,24.05
2022-11-03T00:06:03.072Z,22.17
2022-11-03T00:08:39.316Z,26.33
2022-11-03T00:11:15.668Z,24.85
2022-11-03T00:13:48.915Z,23.88
2022-11-03T00:16:22.267Z,24.88
2022-11-03T00:18:55.882Z,25.65
2022-11-03T00:21:29.924Z,26.23
2022-11-03T00:24:03.612Z,23.20
2022-11-03T00:26:39.096Z,20.70
2022-11-03T00:29:14.221Z,22.35
2022-11-03T00:31:47.678Z,23.17
2022-11-03T00:34:20.942Z,22.92
2022-11-03T00:36:54.467Z,21.40
2022-11-03T00:39:27.722Z,20.48
2022-11-03T00:42:02.670Z,23.52
2022-11-03T00:44:36.099Z,23.65
2022-11-03T00:47:09.513Z,29.30
2022-11-03T00:49:42.743Z,24.52
2022-11-03T00:52:16.431Z,19.58
2022-11-03T00:54:54.341Z,25.38
2022-11-03T00:57:30.047Z,26.40
2022-11-03T01:00:03.656Z,30.67
2022-11-03T01:02:37.006Z,26.30
2022-11-03T01:05:28.076Z,25.67
2022-11-03T01:08:01.584Z,25.95
2022-11-03T01:10:38.626Z,30.67
2022-11-03T01:13:14.825Z,24.38
2022-11-03T01:15:48.052Z,24.30
2022-11-03T01:18:21.637Z,26.85
2022-11-03T01:20:58.678Z,30.52
2022-11-03T01:23:32.150Z,37.65
2022-11-03T01:26:06.088Z,31.33
2022-11-03T01:28:43.574Z,27.83
2022-11-03T01:31:20.391Z,28.08
2022-11-03T01:33:55.480Z,22.40
2022-11-03T01:36:29.256Z,25.80
2022-11-03T01:39:02.687Z,41.05
2022-11-03T01:41:35.935Z,28.13
2022-11-03T01:44:31.908Z,29.77
2022-11-03T01:47:12.648Z,36.10
2022-11-03T01:49:50.161Z,24.65
2022-11-03T01:52:29.061Z,23.25
2022-11-03T01:55:06.181Z,28.05
2022-11-03T01:57:45.355Z,26.08
2022-11-03T02:00:20.497Z,24.05
2022-11-03T02:02:54.548Z,28.95
2022-11-03T02:05:30.323Z,21.08
2022-11-03T02:10:49.138Z,28.30
2022-11-03T02:13:24.446Z,16.45
2022-11-03T02:16:01.326Z,17.95
2022-11-03T02:18:36.148Z,22.65
2022-11-03T02:21:16.331Z,22.65
2022-11-03T02:23:57.050Z,18.63
2022-11-03T02:26:32.230Z,16.58
2022-11-03T02:29:05.548Z,24.80
2022-11-03T02:31:43.480Z,17.90
2022-11-03T02:34:22.687Z,14.55
2022-11-03T02:37:00.433Z,20.52
2022-11-03T02:39:37.764Z,14.35
2022-11-03T02:42:13.961Z,14.75
2022-11-03T02:44:49.322Z,24.13
2022-11-03T02:47:25.081Z,24.02
2022-11-03T02:49:58.347Z,13.05
2022-11-03T02:52:38.320Z,14.63
2022-11-03T02:55:16.414Z,14.75
2022-11-03T02:57:58.798Z,21.08
2022-11-03T03:00:37.391Z,13.60
2022-11-03T03:03:16.185Z,10.73
2022-11-03T03:05:54.246Z,12.13
2022-11-03T03:08:28.174Z,11.00
2022-11-03T03:11:04.392Z,13.00
2022-11-03T03:13:39.259Z,10.75
2022-11-03T03:16:18.024Z,14.27
2022-11-03T03:18:55.807Z,11.93
2022-11-03T03:21:35.548Z,11.25
2022-11-03T03:24:15.466Z,10.40
2022-11-03T03:26:50.771Z,10.98
2022-11-03T03:29:29.937Z,12.68
2022-11-03T03:32:07.599Z,13.20
2022-11-03T03:34:44.829Z,9.52
2022-11-03T03:37:19.872Z,11.27
2022-11-03T03:39:57.189Z,11.73
2022-11-03T03:42:32.210Z,10.50
2022-11-03T03:45:10.291Z,12.80
2022-11-03T03:47:44.621Z,9.48
2022-11-03T03:50:18.642Z,12.90
2022-11-03T03:52:56.237Z,10.57
2022-11-03T03:55:36.535Z,11.38
2022-11-03T03:58:13.114Z,14.38
2022-11-03T04:00:48.162Z,29.23
2022-11-03T04:03:23.232Z,15.95
2022-11-03T04:05:56.883Z,14.30
2022-11-03T04:08:30.133Z,12.77
2022-11-03T04:11:21.100Z,7.35
2022-11-03T04:14:11.581Z,8.40
2022-11-03T04:17:03.653Z,7.20
2022-11-03T04:19:54.293Z,16.20
2022-11-03T04:22:30.345Z,7.38
2022-11-03T04:25:04.069Z,16.48
2022-11-03T04:27:38.718Z,9.20
2022-11-03T04:30:17.366Z,9.75
2022-11-03T04:32:54.205Z,11.02
2022-11-03T04:35:29.562Z,8.20
2022-11-03T04:38:10.548Z,11.98
2022-11-03T04:40:51.975Z,6.85
2022-11-03T04:43:34.471Z,10.90
2022-11-03T04:46:11.959Z,13.32
2022-11-03T04:48:47.834Z,10.18
2022-11-03T04:51:23.753Z,14.10
2022-11-03T04:54:02.935Z,8.55
2022-11-03T04:56:36.175Z,8.52
2022-11-03T04:59:12.807Z,12.20
2022-11-03T05:01:47.797Z,8.10
2022-11-03T05:04:22.573Z,10.23
2022-11-03T05:06:56.055Z,7.95
2022-11-03T05:09:31.351Z,7.30
2022-11-03T05:12:05.329Z,12.82
2022-11-03T05:14:38.851Z,17.33
2022-11-03T05:17:23.400Z,10.20
2022-11-03T05:20:01.357Z,9.30
2022-11-03T05:22:37.678Z,7.95
2022-11-03T05:25:35.065Z,6.53
2022-11-03T05:28:20.359Z,6.20
2022-11-03T05:30:54.541Z,4.78
2022-11-03T05:33:30.434Z,5.15
2022-11-03T05:36:13.582Z,6.40
2022-11-03T05:38:47.159Z,7.38
2022-11-03T05:41:23.787Z,8.63
2022-11-03T05:43:59.233Z,7.18
2022-11-03T05:46:34.953Z,7.32
2022-11-03T05:49:08.692Z,6.18
2022-11-03T05:51:44.830Z,6.80
2022-11-03T05:54:22.646Z,7.07
2022-11-03T05:56:58.353Z,7.75
2022-11-03T05:59:31.878Z,6.82
2022-11-03T06:02:20.935Z,6.13
2022-11-03T06:04:54.298Z,6.97
2022-11-03T06:07:31.389Z,8.20
2022-11-03T06:10:19.791Z,8.85
2022-11-03T06:12:55.228Z,6.70
2022-11-03T06:15:31.248Z,9.85
2022-11-03T06:18:15.515Z,8.32
2022-11-03T06:20:52.339Z,7.72
2022-11-03T06:23:27.572Z,8.57
2022-11-03T06:26:02.673Z,10.32
2022-11-03T06:28:40.242Z,12.93
2022-11-03T06:31:22.899Z,10.82
2022-11-03T06:33:58.244Z,6.68
2022-11-03T06:36:35.948Z,7.75
2022-11-03T06:39:19.676Z,7.53
2022-11-03T06:41:53.445Z,9.68
2022-11-03T06:44:28.501Z,6.18
2022-11-03T06:47:08.098Z,6.90
2022-11-03T06:49:41.455Z,6.22
2022-11-03T06:52:31.479Z,7.95
2022-11-03T06:55:25.099Z,9.05
2022-11-03T06:58:06.206Z,7.30
2022-11-03T07:00:45.874Z,8.05
2022-11-03T07:03:26.845Z,7.10
2022-11-03T07:06:03.147Z,8.23
2022-11-03T07:08:40.920Z,5.95
2022-11-03T07:11:18.939Z,6.05
2022-11-03T07:13:54.432Z,7.53
2022-11-03T07:16:33.176Z,8.05
2022-11-03T07:19:12.275Z,7.30
2022-11-03T07:21:49.112Z,6.13
2022-11-03T07:24:25.257Z,12.13
2022-11-03T07:27:03.656Z,12.75
2022-11-03T07:29:37.012Z,8.27
2022-11-03T07:32:13.463Z,11.02
2022-11-03T07:34:48.558Z,10.75
2022-11-03T07:37:24.322Z,9.13
2022-11-03T07:39:59.671Z,7.43
2022-11-03T07:42:34.293Z,8.73
2022-11-03T07:45:33.850Z,7.63
2022-11-03T07:48:19.258Z,7.30
2022-11-03T07:50:55.077Z,8.57
2022-11-03T07:53:36.812Z,6.65
2022-11-03T07:56:17.369Z,8.10
2022-11-03T07:58:55.395Z,8.00
2022-11-03T08:01:30.909Z,10.88
2022-11-03T08:04:07.812Z,7.43
2022-11-03T08:06:41.131Z,9.10
2022-11-03T08:09:14.418Z,6.13
2022-11-03T08:11:47.950Z,8.77
2022-11-03T08:14:22.822Z,7.45
2022-11-03T08:16:56.155Z,10.50
2022-11-03T08:19:30.082Z,9.88
2022-11-03T08:22:03.493Z,12.85
2022-11-03T08:24:36.735Z,13.55
2022-11-03T08:27:10.026Z,9.68
2022-11-03T08:29:44.694Z,13.35
2022-11-03T08:32:18.012Z,11.07
2022-11-03T08:34:51.283Z,10.27
2022-11-03T08:37:24.599Z,8.63
2022-11-03T08:39:57.897Z,16.23
2022-11-03T08:42:31.218Z,12.15
2022-11-03T08:45:06.891Z,13.50
2022-11-03T08:47:40.226Z,16.63
2022-11-03T08:50:13.714Z,11.38
2022-11-03T08:52:47.033Z,9.15
2022-11-03T08:55:20.346Z,9.48
2022-11-03T08:57:53.666Z,11.27
2022-11-03T09:00:28.392Z,12.48
2022-11-03T09:03:01.730Z,12.05
2022-11-03T09:05:35.003Z,8.90
2022-11-03T09:11:01.896Z,9.18
2022-11-03T09:13:35.175Z,10.52
2022-11-03T09:16:10.210Z,8.90
2022-11-03T09:18:43.519Z,9.27
2022-11-03T09:21:16.855Z,12.07
2022-11-03T09:23:50.194Z,12.30
2022-11-03T09:26:23.521Z,11.48
2022-11-03T09:28:56.867Z,11.05
2022-11-03T09:31:31.547Z,12.40
2022-11-03T09:34:04.821Z,12.45
2022-11-03T09:36:38.285Z,13.77
2022-11-03T09:39:11.960Z,11.38
2022-11-03T09:41:57.852Z,13.02
2022-11-03T09:44:34.641Z,11.13
2022-11-03T09:47:15.281Z,10.63
2022-11-03T09:49:48.579Z,8.57
2022-11-03T09:52:24.266Z,8.27
2022-11-03T09:54:57.965Z,6.97
2022-11-03T09:57:32.473Z,6.03
2022-11-03T10:00:09.359Z,6.20
2022-11-03T10:02:44.780Z,6.43
2022-11-03T10:05:25.524Z,6.82
2022-11-03T10:08:04.135Z,4.78
2022-11-03T10:10:37.928Z,3.72
2022-11-03T10:13:16.502Z,4.80
2022-11-03T10:15:49.824Z,3.40
2022-11-03T10:18:25.348Z,3.63
2022-11-03T10:21:03.686Z,3.05
2022-11-03T10:23:36.933Z,4.10
2022-11-03T10:26:12.164Z,3.85
2022-11-03T10:29:03.040Z,2.90
2022-11-03T10:31:37.603Z,2.88
2022-11-03T10:34:26.886Z,2.78
2022-11-03T10:37:17.305Z,2.58
2022-11-03T10:39:52.191Z,3.97
2022-11-03T10:42:32.002Z,2.05
2022-11-03T10:45:13.158Z,3.22
2022-11-03T10:48:00.809Z,2.15
2022-11-03T10:50:35.725Z,2.22
2022-11-03T10:53:17.424Z,2.50
2022-11-03T10:55:50.844Z,1.98
2022-11-03T10:58:24.540Z,2.80
2022-11-03T11:00:57.929Z,4.43
2022-11-03T11:03:31.692Z,2.75
2022-11-03T11:06:06.619Z,3.15
2022-11-03T11:08:39.909Z,1.90
2022-11-03T11:11:17.005Z,2.47
2022-11-03T11:14:23.664Z,2.33
2022-11-03T11:16:58.593Z,2.53
2022-11-03T11:19:52.377Z,2.17
2022-11-03T11:22:27.005Z,2.20
2022-11-03T11:25:01.865Z,1.73
2022-11-03T11:27:58.653Z,1.95
2022-11-03T11:30:58.941Z,2.25
2022-11-03T11:33:34.311Z,1.98
2022-11-03T11:36:28.441Z,1.95
2022-11-03T11:39:03.984Z,1.80
2022-11-03T11:42:11.968Z,1.83
2022-11-03T11:44:59.274Z,1.75
2022-11-03T11:47:48.023Z,2.08
2022-11-03T11:50:31.408Z,2.35
2022-11-03T11:53:27.644Z,2.00
2022-11-03T11:56:06.709Z,2.30
2022-11-03T11:58:43.671Z,2.08
2022-11-03T12:01:23.532Z,2.00
2022-11-03T12:03:58.411Z,2.00
2022-11-03T12:06:35.541Z,1.65
2022-11-03T12:09:15.737Z,2.05
2022-11-03T12:11:56.118Z,2.30
2022-11-03T12:14:35.202Z,1.88
2022-11-03T12:17:34.028Z,2.00
2022-11-03T12:20:35.859Z,2.60
2022-11-03T12:23:09.141Z,1.88
2022-11-03T12:25:42.542Z,2.28
2022-11-03T12:28:35.611Z,2.35
2022-11-03T12:31:08.831Z,1.90
2022-11-03T12:33:42.189Z,2.15
2022-11-03T12:36:15.439Z,2.30
2022-11-03T12:38:48.715Z,2.75
2022-11-03T12:41:25.340Z,2.00
2022-11-03T12:44:00.022Z,2.88
2022-11-03T12:46:33.337Z,2.08
2022-11-03T12:49:06.591Z,1.85
2022-11-03T12:51:39.980Z,2.10
2022-11-03T12:54:13.431Z,2.38
2022-11-03T12:56:46.671Z,1.48
2022-11-03T12:59:21.301Z,2.47
2022-11-03T13:01:54.726Z,1.90
2022-11-03T13:04:28.176Z,2.13
2022-11-03T13:07:01.466Z,2.13
2022-11-03T13:09:35.869Z,2.20
2022-11-03T13:12:30.933Z,2.05
2022-11-03T13:15:08.477Z,1.98
2022-11-03T13:20:35.912Z,2.20
2022-11-03T13:23:09.596Z,2.15
2022-11-03T13:25:43.206Z,1.80
2022-11-03T13:28:16.597Z,1.63
2022-11-03T13:30:51.219Z,2.38
2022-11-03T13:33:24.523Z,1.88
2022-11-03T13:35:57.841Z,2.33
2022-11-03T13:38:31.518Z,1.85
2022-11-03T13:41:08.726Z,2.42
2022-11-03T13:43:42.325Z,2.58
2022-11-03T13:46:16.979Z,2.10
2022-11-03T13:49:44.659Z,1.52
2022-11-03T13:51:43.507Z,1.92
2022-11-03T14:00:05.601Z,2.25
2022-11-03T14:05:41.575Z,2.55
2022-11-03T14:08:14.983Z,2.38
2022-11-03T14:10:48.215Z,2.13
2022-11-03T14:13:20.802Z,2.22
2022-11-03T14:15:54.194Z,1.85
2022-11-03T14:18:28.779Z,2.55
2022-11-03T14:21:02.296Z,2.33
2022-11-03T14:23:35.534Z,2.15
2022-11-03T14:26:23.896Z,2.13
2022-11-03T14:29:02.420Z,1.90
2022-11-03T14:31:36.441Z,2.03
2022-11-03T14:34:11.144Z,2.88
2022-11-03T14:36:44.450Z,2.75
2022-11-03T14:39:18.038Z,2.70
2022-11-03T14:42:06.477Z,2.33
2022-11-03T14:44:40.895Z,3.90
2022-11-03T14:47:15.469Z,3.78
2022-11-03T14:49:50.512Z,4.20
2022-11-03T14:52:23.775Z,4.13
2022-11-03T14:54:57.048Z,4.22
2022-11-03T14:57:30.363Z,5.30
2022-11-03T15:00:04.206Z,4.55
2022-11-03T15:02:38.572Z,4.20
2022-11-03T15:05:33.261Z,4.28
2022-11-03T15:08:06.983Z,4.90
2022-11-03T15:10:40.541Z,4.25
2022-11-03T15:13:13.888Z,6.45
2022-11-03T15:15:47.249Z,4.78
2022-11-03T15:18:20.614Z,4.93
2022-11-03T15:20:55.312Z,4.32
2022-11-03T15:26:22.002Z,9.00
2022-11-03T15:28:55.285Z,9.43
2022-11-03T15:31:28.538Z,7.13
2022-11-03T15:34:04.439Z,5.63
2022-11-03T15:36:42.428Z,7.63
2022-11-03T15:39:16.117Z,11.65
2022-11-03T15:41:49.373Z,13.90
2022-11-03T15:44:22.774Z,11.35
2022-11-03T15:46:56.073Z,10.82
2022-11-03T15:49:29.376Z,8.60
2022-11-03T15:52:04.039Z,9.35
2022-11-03T15:54:42.155Z,12.95
2022-11-03T15:57:15.995Z,11.55
2022-11-03T15:59:50.645Z,7.93
2022-11-03T16:02:40.880Z,10.32
2022-11-03T16:05:17.755Z,9.27
2022-11-03T16:08:04.499Z,6.50
2022-11-03T16:10:39.348Z,9.43
2022-11-03T16:13:15.024Z,17.05
2022-11-03T16:15:48.389Z,9.55
2022-11-03T16:18:21.833Z,9.43
2022-11-03T16:20:55.215Z,10.50
2022-11-03T16:23:32.177Z,42.70
2022-11-03T16:26:05.733Z,22.83
2022-11-03T16:28:39.019Z,23.23
2022-11-03T16:31:12.399Z,26.67
2022-11-03T16:33:45.645Z,25.08
2022-11-03T16:36:19.340Z,19.77
2022-11-03T16:38:54.045Z,19.35
2022-11-03T16:41:27.353Z,18.52
2022-11-03T16:44:00.679Z,28.38
2022-11-03T16:46:33.972Z,25.63
2022-11-03T16:49:07.436Z,22.58
2022-11-03T16:51:43.312Z,21.38
2022-11-03T16:54:17.947Z,20.85
2022-11-03T16:56:54.659Z,21.15
2022-11-03T16:59:28.550Z,19.88
2022-11-03T17:02:01.949Z,19.75
2022-11-03T17:04:35.382Z,22.00
2022-11-03T17:07:08.692Z,23.05
2022-11-03T17:09:43.324Z,20.33
2022-11-03T17:12:16.622Z,14.85
2022-11-03T17:14:52.550Z,16.80
2022-11-03T17:17:29.102Z,21.42
2022-11-03T17:20:02.365Z,19.17
2022-11-03T17:22:35.669Z,19.23
2022-11-03T17:25:12.557Z,18.92
2022-11-03T17:27:48.296Z,21.38
2022-11-03T17:30:23.470Z,15.10
2022-11-03T17:32:59.486Z,18.17
2022-11-03T17:35:39.612Z,22.73
2022-11-03T17:38:15.396Z,27.48
2022-11-03T17:40:50.593Z,25.10
2022-11-03T17:43:25.671Z,25.05
2022-11-03T17:45:59.170Z,28.05
2022-11-03T17:48:32.697Z,33.55
2022-11-03T17:51:11.883Z,27.92
2022-11-03T17:53:46.672Z,29.67
2022-11-03T17:56:31.123Z,28.05
2022-11-03T17:59:04.943Z,30.33
2022-11-03T18:01:38.383Z,35.42
2022-11-03T18:06:51.764Z,29.40
2022-11-03T18:09:24.994Z,28.73
2022-11-03T18:12:13.535Z,30.35
2022-11-03T18:14:47.114Z,27.48
2022-11-03T18:17:20.404Z,32.10
2022-11-03T18:19:53.791Z,41.53
2022-11-03T18:22:27.077Z,45.80
2022-11-03T18:25:00.541Z,39.53
2022-11-03T18:27:35.204Z,44.20
2022-11-03T18:30:10.307Z,36.10
2022-11-03T18:32:45.406Z,30.45
2022-11-03T18:35:22.396Z,37.70
2022-11-03T18:37:56.570Z,34.72
2022-11-03T18:40:31.821Z,41.40
2022-11-03T18:43:13.806Z,41.85
2022-11-03T18:45:47.404Z,75.45
2022-11-03T18:48:20.886Z,45.17
2022-11-03T18:50:56.638Z,36.65
2022-11-03T18:53:30.945Z,42.30
2022-11-03T18:56:04.260Z,48.60
2022-11-03T18:58:39.076Z,34.53
2022-11-03T19:01:21.016Z,38.35
2022-11-03T19:03:56.331Z,38.97
2022-11-03T19:06:29.639Z,51.88
2022-11-03T19:09:02.968Z,34.92
2022-11-03T19:11:36.282Z,32.50
2022-11-03T19:14:16.922Z,28.98
2022-11-03T19:17:17.095Z,28.00
2022-11-03T19:19:45.367Z,30.45
2022-11-03T19:22:20.625Z,30.13
2022-11-03T19:24:53.870Z,30.13
2022-11-03T19:27:29.174Z,26.52
2022-11-03T19:30:05.617Z,24.77
2022-11-03T19:32:42.752Z,24.95
2022-11-03T19:35:20.551Z,22.92
2022-11-03T19:38:00.853Z,26.55
2022-11-03T19:40:34.576Z,29.48
2022-11-03T19:43:09.205Z,33.63
2022-11-03T19:45:43.892Z,27.83
2022-11-03T19:48:24.339Z,31.88
2022-11-03T19:50:58.486Z,32.15
2022-11-03T19:53:33.254Z,31.38
2022-11-03T19:56:06.798Z,33.60
2022-11-03T19:58:40.087Z,29.52
2022-11-03T20:01:14.832Z,33.58
2022-11-03T20:03:48.265Z,28.48
2022-11-03T20:06:21.638Z,28.45
2022-11-03T20:08:54.959Z,29.50
2022-11-03T20:11:28.541Z,30.33
2022-11-03T20:14:03.597Z,34.20
2022-11-03T20:16:38.208Z,31.17
2022-11-03T20:19:11.545Z,28.83
2022-11-03T20:21:45.431Z,26.52
2022-11-03T20:24:20.109Z,25.67
2022-11-03T20:26:53.434Z,28.45
2022-11-03T20:29:30.758Z,26.63
2022-11-03T20:32:11.210Z,27.40
2022-11-03T20:34:46.548Z,34.55
2022-11-03T20:37:21.863Z,41.03
2022-11-03T20:39:55.213Z,35.35
2022-11-03T20:42:28.816Z,36.60
2022-11-03T20:45:02.388Z,37.60
2022-11-03T20:47:37.048Z,33.30
2022-11-03T20:50:11.445Z,46.35
2022-11-03T20:52:46.753Z,43.25
2022-11-03T20:55:22.782Z,37.72
2022-11-03T20:57:56.552Z,33.17
2022-11-03T21:00:31.702Z,33.45
2022-11-03T21:03:31.457Z,32.67
2022-11-03T21:06:10.730Z,32.38
2022-11-03T21:08:44.346Z,32.97
2022-11-03T21:11:27.213Z,28.92
2022-11-03T21:14:03.899Z,28.80
2022-11-03T21:16:54.533Z,27.58
2022-11-03T21:19:57.225Z,30.23
2022-11-03T21:25:28.621Z,25.75
2022-11-03T21:28:01.875Z,25.63
2022-11-03T21:30:35.154Z,28.50
2022-11-03T21:33:08.563Z,23.05
2022-11-03T21:35:44.320Z,27.58
2022-11-03T21:38:18.791Z,25.40
2022-11-03T21:41:12.744Z,24.75
2022-11-03T21:44:05.517Z,21.55
2022-11-03T21:46:38.859Z,23.67
2022-11-03T21:49:29.873Z,30.20
2022-11-03T21:52:31.748Z,33.03
2022-11-03T21:55:06.660Z,31.58
2022-11-03T21:57:39.904Z,42.83
2022-11-03T22:00:14.466Z,37.35
2022-11-03T22:02:47.749Z,33.35
2022-11-03T22:05:21.048Z,41.70
2022-11-03T22:07:55.709Z,34.60
2022-11-03T22:10:28.948Z,32.33
2022-11-03T22:13:02.177Z,29.63
2022-11-03T22:15:52.856Z,32.22
2022-11-03T22:18:26.109Z,29.70
2022-11-03T22:21:16.772Z,34.83
2022-11-03T22:24:08.090Z,30.23
2022-11-03T22:26:59.943Z,35.55
2022-11-03T22:29:50.405Z,39.85
2022-11-03T22:32:23.701Z,34.22
2022-11-03T22:35:14.476Z,32.95
2022-11-03T22:37:47.914Z,29.85
2022-11-03T22:40:40.077Z,26.63
2022-11-03T22:43:36.191Z,31.77
2022-11-03T22:46:10.382Z,33.75
2022-11-03T22:48:43.861Z,27.85
2022-11-03T22:51:17.776Z,30.73
2022-11-03T22:54:08.250Z,42.17
2022-11-03T22:56:43.216Z,36.88
2022-11-03T22:59:16.516Z,33.40
2022-11-03T23:01:49.927Z,29.77
2022-11-03T23:04:23.232Z,30.73
2022-11-03T23:06:56.507Z,32.40
2022-11-03T23:09:29.849Z,35.70
2022-11-03T23:12:04.710Z,30.85
2022-11-03T23:14:51.980Z,29.77
2022-11-03T23:17:45.306Z,30.02
2022-11-03T23:20:36.380Z,28.30
2022-11-03T23:23:29.667Z,33.60
2022-11-03T23:26:01.945Z,28.15
2022-11-03T23:28:36.598Z,25.75
2022-11-03T23:31:10.548Z,29.08
2022-11-03T23:33:43.977Z,24.42
2022-11-03T23:36:18.470Z,25.38
2022-11-03T23:38:51.712Z,28.27
2022-11-03T23:41:25.921Z,29.83
2022-11-03T23:44:00.877Z,26.30
2022-11-03T23:46:52.218Z,27.17
2022-11-03T23:49:25.509Z,28.02
2022-11-03T23:51:59.112Z,24.08
2022-11-03T23:54:32.828Z,31.13
2022-11-03T23:57:23.258Z,33.38
2022-11-03T23:59:58.225Z,32.38
